sensor_id;sensor_type;location;lat;lon;timestamp;P1;durP1;ratioP1;P2;durP2;ratioP2
57551;SDS011;43379;48.160;14.036;2023-08-24T00:01:36;13.83;;;12.90;;
57551;SDS011;43379;48.160;14.036;2023-08-24T00:04:01;12.17;;;11.30;;
57551;SDS011;43379;48.160;14.036;2023-08-24T00:06:27;13.43;;;12.33;;
57551;SDS011;43379;48.160;14.036;2023-08-24T00:08:53;13.03;;;12.03;;
57551;SDS011;43379;48.160;14.036;2023-08-24T00:11:18;13.87;;;12.87;;
57551;SDS011;43379;48.160;14.036;2023-08-24T00:13:45;15.27;;;14.07;;
57551;SDS011;43379;48.160;14.036;2023-08-24T00:16:17;13.13;;;12.13;;
57551;SDS011;43379;48.160;14.036;2023-08-24T00:18:44;13.77;;;12.77;;
57551;SDS011;43379;48.160;14.036;2023-08-24T00:21:10;13.70;;;12.50;;
57551;SDS011;43379;48.160;14.036;2023-08-24T00:23:36;14.10;;;12.97;;
57551;SDS011;43379;48.160;14.036;2023-08-24T00:26:03;13.90;;;12.70;;
57551;SDS011;43379;48.160;14.036;2023-08-24T00:28:29;15.30;;;13.80;;
57551;SDS011;43379;48.160;14.036;2023-08-24T00:30:55;14.40;;;13.30;;
57551;SDS011;43379;48.160;14.036;2023-08-24T00:33:20;13.77;;;12.87;;
57551;SDS011;43379;48.160;14.036;2023-08-24T00:35:46;13.97;;;12.77;;
57551;SDS011;43379;48.160;14.036;2023-08-24T00:38:12;13.30;;;12.30;;
57551;SDS011;43379;48.160;14.036;2023-08-24T00:40:38;14.47;;;13.37;;
57551;SDS011;43379;48.160;14.036;2023-08-24T00:43:09;12.97;;;11.90;;
57551;SDS011;43379;48.160;14.036;2023-08-24T00:45:35;13.57;;;12.53;;
57551;SDS011;43379;48.160;14.036;2023-08-24T00:48:01;14.93;;;13.67;;
57551;SDS011;43379;48.160;14.036;2023-08-24T00:50:27;15.03;;;13.57;;
57551;SDS011;43379;48.160;14.036;2023-08-24T00:52:53;14.63;;;13.50;;
57551;SDS011;43379;48.160;14.036;2023-08-24T00:55:19;15.57;;;14.37;;
57551;SDS011;43379;48.160;14.036;2023-08-24T00:57:46;13.60;;;12.60;;
57551;SDS011;43379;48.160;14.036;2023-08-24T01:00:13;13.10;;;11.97;;
57551;SDS011;43379;48.160;14.036;2023-08-24T01:02:39;14.27;;;12.97;;
57551;SDS011;43379;48.160;14.036;2023-08-24T01:05:05;16.13;;;14.83;;
57551;SDS011;43379;48.160;14.036;2023-08-24T01:07:32;14.23;;;12.93;;
57551;SDS011;43379;48.160;14.036;2023-08-24T01:10:00;13.87;;;12.87;;
57551;SDS011;43379;48.160;14.036;2023-08-24T01:12:30;14.50;;;13.50;;
57551;SDS011;43379;48.160;14.036;2023-08-24T01:15:07;13.80;;;12.63;;
57551;SDS011;43379;48.160;14.036;2023-08-24T01:17:34;12.53;;;11.67;;
57551;SDS011;43379;48.160;14.036;2023-08-24T01:20:04;14.20;;;13.07;;
57551;SDS011;43379;48.160;14.036;2023-08-24T01:27:42;13.73;;;12.83;;
57551;SDS011;43379;48.160;14.036;2023-08-24T01:30:09;14.20;;;13.07;;
57551;SDS011;43379;48.160;14.036;2023-08-24T01:32:35;13.83;;;12.83;;
57551;SDS011;43379;48.160;14.036;2023-08-24T01:35:03;14.30;;;13.10;;
57551;SDS011;43379;48.160;14.036;2023-08-24T01:37:30;14.90;;;13.70;;
57551;SDS011;43379;48.160;14.036;2023-08-24T01:40:04;16.30;;;13.83;;
57551;SDS011;43379;48.160;14.036;2023-08-24T01:42:51;13.73;;;12.27;;
57551;SDS011;43379;48.160;14.036;2023-08-24T01:45:22;14.70;;;13.60;;
57551;SDS011;43379;48.160;14.036;2023-08-24T01:47:49;14.37;;;13.17;;
57551;SDS011;43379;48.160;14.036;2023-08-24T01:50:17;14.10;;;12.77;;
57551;SDS011;43379;48.160;14.036;2023-08-24T01:52:43;14.43;;;13.33;;
57551;SDS011;43379;48.160;14.036;2023-08-24T01:55:09;13.50;;;12.50;;
57551;SDS011;43379;48.160;14.036;2023-08-24T01:57:36;14.43;;;13.23;;
57551;SDS011;43379;48.160;14.036;2023-08-24T02:00:03;13.73;;;12.73;;
57551;SDS011;43379;48.160;14.036;2023-08-24T02:02:31;14.27;;;13.17;;
57551;SDS011;43379;48.160;14.036;2023-08-24T02:04:58;13.93;;;12.80;;
57551;SDS011;43379;48.160;14.036;2023-08-24T02:07:24;13.93;;;12.83;;
57551;SDS011;43379;48.160;14.036;2023-08-24T02:09:49;14.70;;;13.30;;
57551;SDS011;43379;48.160;14.036;2023-08-24T02:12:15;14.73;;;13.53;;
57551;SDS011;43379;48.160;14.036;2023-08-24T02:14:41;14.30;;;13.10;;
57551;SDS011;43379;48.160;14.036;2023-08-24T02:17:06;13.70;;;12.60;;
57551;SDS011;43379;48.160;14.036;2023-08-24T02:19:32;14.80;;;13.40;;
57551;SDS011;43379;48.160;14.036;2023-08-24T02:21:58;14.27;;;12.97;;
57551;SDS011;43379;48.160;14.036;2023-08-24T02:24:23;14.90;;;13.70;;
57551;SDS011;43379;48.160;14.036;2023-08-24T02:26:49;14.20;;;13.00;;
57551;SDS011;43379;48.160;14.036;2023-08-24T02:29:14;13.53;;;12.40;;
57551;SDS011;43379;48.160;14.036;2023-08-24T02:31:40;14.47;;;13.37;;
57551;SDS011;43379;48.160;14.036;2023-08-24T02:34:06;14.00;;;12.90;;
57551;SDS011;43379;48.160;14.036;2023-08-24T02:36:31;15.00;;;13.70;;
57551;SDS011;43379;48.160;14.036;2023-08-24T02:38:58;15.10;;;14.00;;
57551;SDS011;43379;48.160;14.036;2023-08-24T02:41:25;14.50;;;13.40;;
57551;SDS011;43379;48.160;14.036;2023-08-24T02:43:51;15.33;;;14.00;;
57551;SDS011;43379;48.160;14.036;2023-08-24T02:46:16;14.30;;;13.20;;
57551;SDS011;43379;48.160;14.036;2023-08-24T02:48:43;14.63;;;13.40;;
57551;SDS011;43379;48.160;14.036;2023-08-24T02:51:09;14.30;;;13.10;;
57551;SDS011;43379;48.160;14.036;2023-08-24T02:53:35;13.20;;;12.20;;
57551;SDS011;43379;48.160;14.036;2023-08-24T02:56:01;15.00;;;13.87;;
57551;SDS011;43379;48.160;14.036;2023-08-24T02:58:27;14.57;;;13.47;;
57551;SDS011;43379;48.160;14.036;2023-08-24T03:00:53;13.90;;;12.80;;
57551;SDS011;43379;48.160;14.036;2023-08-24T03:03:19;14.63;;;13.17;;
57551;SDS011;43379;48.160;14.036;2023-08-24T03:05:55;14.10;;;12.80;;
57551;SDS011;43379;48.160;14.036;2023-08-24T03:08:25;14.03;;;12.83;;
57551;SDS011;43379;48.160;14.036;2023-08-24T03:10:51;14.73;;;13.63;;
57551;SDS011;43379;48.160;14.036;2023-08-24T03:13:16;14.30;;;13.00;;
57551;SDS011;43379;48.160;14.036;2023-08-24T03:15:42;14.07;;;12.97;;
57551;SDS011;43379;48.160;14.036;2023-08-24T03:18:10;14.40;;;13.17;;
57551;SDS011;43379;48.160;14.036;2023-08-24T03:20:38;15.00;;;13.70;;
57551;SDS011;43379;48.160;14.036;2023-08-24T03:23:04;15.23;;;13.80;;
57551;SDS011;43379;48.160;14.036;2023-08-24T03:25:31;15.50;;;14.10;;
57551;SDS011;43379;48.160;14.036;2023-08-24T03:28:00;15.90;;;14.50;;
57551;SDS011;43379;48.160;14.036;2023-08-24T03:30:25;15.73;;;13.30;;
57551;SDS011;43379;48.160;14.036;2023-08-24T03:32:51;14.47;;;13.10;;
57551;SDS011;43379;48.160;14.036;2023-08-24T03:35:16;15.70;;;14.60;;
57551;SDS011;43379;48.160;14.036;2023-08-24T03:37:42;15.30;;;14.10;;
57551;SDS011;43379;48.160;14.036;2023-08-24T03:40:08;13.80;;;12.70;;
57551;SDS011;43379;48.160;14.036;2023-08-24T03:42:34;13.60;;;12.60;;
57551;SDS011;43379;48.160;14.036;2023-08-24T03:44:59;14.80;;;13.60;;
57551;SDS011;43379;48.160;14.036;2023-08-24T03:47:25;14.40;;;13.40;;
57551;SDS011;43379;48.160;14.036;2023-08-24T03:49:51;14.20;;;13.10;;
57551;SDS011;43379;48.160;14.036;2023-08-24T03:52:16;13.50;;;12.30;;
57551;SDS011;43379;48.160;14.036;2023-08-24T03:54:42;14.00;;;12.90;;
57551;SDS011;43379;48.160;14.036;2023-08-24T03:57:08;14.90;;;13.50;;
57551;SDS011;43379;48.160;14.036;2023-08-24T03:59:33;13.67;;;12.57;;
57551;SDS011;43379;48.160;14.036;2023-08-24T04:01:59;14.70;;;13.30;;
57551;SDS011;43379;48.160;14.036;2023-08-24T04:04:27;13.30;;;12.20;;
57551;SDS011;43379;48.160;14.036;2023-08-24T04:06:53;15.17;;;13.97;;
57551;SDS011;43379;48.160;14.036;2023-08-24T04:09:18;14.50;;;13.30;;
57551;SDS011;43379;48.160;14.036;2023-08-24T04:11:44;13.23;;;12.17;;
57551;SDS011;43379;48.160;14.036;2023-08-24T04:14:10;14.90;;;13.37;;
57551;SDS011;43379;48.160;14.036;2023-08-24T04:16:35;14.00;;;12.87;;
57551;SDS011;43379;48.160;14.036;2023-08-24T04:19:01;15.97;;;14.67;;
57551;SDS011;43379;48.160;14.036;2023-08-24T04:21:27;15.57;;;14.33;;
57551;SDS011;43379;48.160;14.036;2023-08-24T04:23:52;14.70;;;13.53;;
57551;SDS011;43379;48.160;14.036;2023-08-24T04:26:18;13.87;;;12.77;;
57551;SDS011;43379;48.160;14.036;2023-08-24T04:28:44;16.03;;;14.43;;
57551;SDS011;43379;48.160;14.036;2023-08-24T04:31:09;15.87;;;14.77;;
57551;SDS011;43379;48.160;14.036;2023-08-24T04:33:35;15.70;;;14.20;;
57551;SDS011;43379;48.160;14.036;2023-08-24T04:36:01;14.70;;;13.50;;
57551;SDS011;43379;48.160;14.036;2023-08-24T04:38:30;14.40;;;13.20;;
57551;SDS011;43379;48.160;14.036;2023-08-24T04:40:56;16.20;;;14.90;;
57551;SDS011;43379;48.160;14.036;2023-08-24T04:43:22;16.43;;;14.73;;
57551;SDS011;43379;48.160;14.036;2023-08-24T04:45:50;15.93;;;14.47;;
57551;SDS011;43379;48.160;14.036;2023-08-24T04:48:19;15.30;;;14.00;;
57551;SDS011;43379;48.160;14.036;2023-08-24T04:50:46;15.50;;;14.37;;
57551;SDS011;43379;48.160;14.036;2023-08-24T04:53:13;17.07;;;15.53;;
57551;SDS011;43379;48.160;14.036;2023-08-24T04:55:40;17.20;;;15.77;;
57551;SDS011;43379;48.160;14.036;2023-08-24T04:58:07;18.40;;;16.90;;
57551;SDS011;43379;48.160;14.036;2023-08-24T05:00:33;19.60;;;17.90;;
57551;SDS011;43379;48.160;14.036;2023-08-24T05:03:00;18.50;;;17.13;;
57551;SDS011;43379;48.160;14.036;2023-08-24T05:05:30;18.67;;;17.10;;
57551;SDS011;43379;48.160;14.036;2023-08-24T05:07:57;19.53;;;17.93;;
57551;SDS011;43379;48.160;14.036;2023-08-24T05:10:24;19.53;;;17.80;;
57551;SDS011;43379;48.160;14.036;2023-08-24T05:12:50;20.93;;;18.93;;
57551;SDS011;43379;48.160;14.036;2023-08-24T05:15:16;20.40;;;18.90;;
57551;SDS011;43379;48.160;14.036;2023-08-24T05:17:42;18.23;;;16.63;;
57551;SDS011;43379;48.160;14.036;2023-08-24T05:20:08;18.43;;;17.13;;
57551;SDS011;43379;48.160;14.036;2023-08-24T05:22:36;19.83;;;18.33;;
57551;SDS011;43379;48.160;14.036;2023-08-24T05:25:02;17.80;;;16.20;;
57551;SDS011;43379;48.160;14.036;2023-08-24T05:27:27;17.80;;;16.40;;
57551;SDS011;43379;48.160;14.036;2023-08-24T05:29:53;19.00;;;17.20;;
57551;SDS011;43379;48.160;14.036;2023-08-24T05:32:19;19.20;;;17.60;;
57551;SDS011;43379;48.160;14.036;2023-08-24T05:34:45;18.20;;;16.60;;
57551;SDS011;43379;48.160;14.036;2023-08-24T05:37:11;17.93;;;16.50;;
57551;SDS011;43379;48.160;14.036;2023-08-24T05:39:37;16.93;;;15.63;;
57551;SDS011;43379;48.160;14.036;2023-08-24T05:42:03;18.20;;;16.80;;
57551;SDS011;43379;48.160;14.036;2023-08-24T05:44:29;17.30;;;15.90;;
57551;SDS011;43379;48.160;14.036;2023-08-24T05:46:55;17.90;;;16.50;;
57551;SDS011;43379;48.160;14.036;2023-08-24T05:49:21;18.60;;;17.00;;
57551;SDS011;43379;48.160;14.036;2023-08-24T05:51:46;17.63;;;16.17;;
57551;SDS011;43379;48.160;14.036;2023-08-24T05:54:15;16.37;;;15.00;;
57551;SDS011;43379;48.160;14.036;2023-08-24T05:56:43;18.07;;;16.40;;
57551;SDS011;43379;48.160;14.036;2023-08-24T05:59:12;17.87;;;16.20;;
57551;SDS011;43379;48.160;14.036;2023-08-24T06:01:38;16.10;;;14.90;;
57551;SDS011;43379;48.160;14.036;2023-08-24T06:04:08;18.10;;;16.50;;
57551;SDS011;43379;48.160;14.036;2023-08-24T06:06:34;17.33;;;16.13;;
57551;SDS011;43379;48.160;14.036;2023-08-24T06:09:00;16.43;;;15.23;;
57551;SDS011;43379;48.160;14.036;2023-08-24T06:11:29;13.80;;;12.70;;
57551;SDS011;43379;48.160;14.036;2023-08-24T06:13:55;12.10;;;11.20;;
57551;SDS011;43379;48.160;14.036;2023-08-24T06:16:20;13.60;;;12.50;;
57551;SDS011;43379;48.160;14.036;2023-08-24T06:18:46;12.33;;;11.50;;
57551;SDS011;43379;48.160;14.036;2023-08-24T06:21:12;11.80;;;10.70;;
57551;SDS011;43379;48.160;14.036;2023-08-24T06:23:40;11.50;;;10.70;;
57551;SDS011;43379;48.160;14.036;2023-08-24T06:26:06;11.70;;;10.90;;
57551;SDS011;43379;48.160;14.036;2023-08-24T06:28:31;13.57;;;12.37;;
57551;SDS011;43379;48.160;14.036;2023-08-24T06:30:57;11.37;;;10.37;;
57551;SDS011;43379;48.160;14.036;2023-08-24T06:33:28;14.70;;;13.27;;
57551;SDS011;43379;48.160;14.036;2023-08-24T06:35:57;13.30;;;12.10;;
57551;SDS011;43379;48.160;14.036;2023-08-24T06:38:23;12.93;;;11.93;;
57551;SDS011;43379;48.160;14.036;2023-08-24T06:40:48;14.53;;;13.20;;
57551;SDS011;43379;48.160;14.036;2023-08-24T06:43:14;14.00;;;12.80;;
57551;SDS011;43379;48.160;14.036;2023-08-24T06:45:40;15.03;;;13.70;;
57551;SDS011;43379;48.160;14.036;2023-08-24T06:48:06;15.30;;;14.17;;
57551;SDS011;43379;48.160;14.036;2023-08-24T06:50:32;14.83;;;13.23;;
57551;SDS011;43379;48.160;14.036;2023-08-24T06:52:58;14.13;;;12.97;;
57551;SDS011;43379;48.160;14.036;2023-08-24T06:55:24;14.23;;;12.60;;
57551;SDS011;43379;48.160;14.036;2023-08-24T06:57:52;14.03;;;12.97;;
57551;SDS011;43379;48.160;14.036;2023-08-24T07:00:18;16.83;;;15.53;;
57551;SDS011;43379;48.160;14.036;2023-08-24T07:02:48;17.90;;;16.20;;
57551;SDS011;43379;48.160;14.036;2023-08-24T07:05:14;15.17;;;13.67;;
57551;SDS011;43379;48.160;14.036;2023-08-24T07:07:44;16.63;;;15.10;;
57551;SDS011;43379;48.160;14.036;2023-08-24T07:10:10;15.90;;;14.37;;
57551;SDS011;43379;48.160;14.036;2023-08-24T07:12:36;16.80;;;15.17;;
57551;SDS011;43379;48.160;14.036;2023-08-24T07:15:04;17.50;;;15.30;;
57551;SDS011;43379;48.160;14.036;2023-08-24T07:17:30;18.60;;;16.97;;
57551;SDS011;43379;48.160;14.036;2023-08-24T07:19:56;19.60;;;17.67;;
57551;SDS011;43379;48.160;14.036;2023-08-24T07:22:22;17.87;;;16.13;;
57551;SDS011;43379;48.160;14.036;2023-08-24T07:24:47;18.33;;;16.73;;
57551;SDS011;43379;48.160;14.036;2023-08-24T07:27:17;16.83;;;15.63;;
57551;SDS011;43379;48.160;14.036;2023-08-24T07:29:43;16.60;;;14.90;;
57551;SDS011;43379;48.160;14.036;2023-08-24T07:32:09;13.77;;;12.67;;
57551;SDS011;43379;48.160;14.036;2023-08-24T07:34:34;14.63;;;13.57;;
57551;SDS011;43379;48.160;14.036;2023-08-24T07:37:00;13.17;;;12.20;;
57551;SDS011;43379;48.160;14.036;2023-08-24T07:39:26;13.40;;;12.37;;
57551;SDS011;43379;48.160;14.036;2023-08-24T07:41:51;13.60;;;12.60;;
57551;SDS011;43379;48.160;14.036;2023-08-24T07:44:17;15.83;;;14.47;;
57551;SDS011;43379;48.160;14.036;2023-08-24T07:46:43;14.97;;;13.83;;
57551;SDS011;43379;48.160;14.036;2023-08-24T07:49:09;14.70;;;13.60;;
57551;SDS011;43379;48.160;14.036;2023-08-24T07:51:34;16.03;;;14.73;;
57551;SDS011;43379;48.160;14.036;2023-08-24T07:54:00;17.10;;;15.60;;
57551;SDS011;43379;48.160;14.036;2023-08-24T07:56:26;14.97;;;13.50;;
57551;SDS011;43379;48.160;14.036;2023-08-24T07:58:52;17.23;;;15.50;;
57551;SDS011;43379;48.160;14.036;2023-08-24T08:01:18;14.70;;;13.50;;
57551;SDS011;43379;48.160;14.036;2023-08-24T08:03:43;17.30;;;14.90;;
57551;SDS011;43379;48.160;14.036;2023-08-24T08:06:09;15.90;;;14.30;;
57551;SDS011;43379;48.160;14.036;2023-08-24T08:08:34;15.57;;;14.27;;
57551;SDS011;43379;48.160;14.036;2023-08-24T08:11:00;16.50;;;15.20;;
57551;SDS011;43379;48.160;14.036;2023-08-24T08:13:27;17.20;;;13.87;;
57551;SDS011;43379;48.160;14.036;2023-08-24T08:15:59;16.63;;;14.93;;
57551;SDS011;43379;48.160;14.036;2023-08-24T08:18:28;21.30;;;17.77;;
57551;SDS011;43379;48.160;14.036;2023-08-24T08:20:54;15.97;;;14.67;;
57551;SDS011;43379;48.160;14.036;2023-08-24T08:23:19;15.50;;;12.57;;
57551;SDS011;43379;48.160;14.036;2023-08-24T08:25:45;15.53;;;14.00;;
57551;SDS011;43379;48.160;14.036;2023-08-24T08:28:11;18.37;;;16.80;;
57551;SDS011;43379;48.160;14.036;2023-08-24T08:30:36;15.07;;;13.70;;
57551;SDS011;43379;48.160;14.036;2023-08-24T08:33:02;17.37;;;15.60;;
57551;SDS011;43379;48.160;14.036;2023-08-24T08:35:28;16.97;;;15.27;;
57551;SDS011;43379;48.160;14.036;2023-08-24T08:37:54;15.00;;;13.47;;
57551;SDS011;43379;48.160;14.036;2023-08-24T08:40:19;14.27;;;13.00;;
57551;SDS011;43379;48.160;14.036;2023-08-24T08:42:45;14.57;;;13.57;;
57551;SDS011;43379;48.160;14.036;2023-08-24T08:45:11;14.20;;;13.00;;
57551;SDS011;43379;48.160;14.036;2023-08-24T08:47:37;15.67;;;14.40;;
57551;SDS011;43379;48.160;14.036;2023-08-24T08:50:06;13.67;;;12.67;;
57551;SDS011;43379;48.160;14.036;2023-08-24T08:52:32;14.13;;;12.87;;
57551;SDS011;43379;48.160;14.036;2023-08-24T08:54:59;13.70;;;12.70;;
57551;SDS011;43379;48.160;14.036;2023-08-24T08:57:25;15.23;;;13.80;;
57551;SDS011;43379;48.160;14.036;2023-08-24T08:59:54;13.83;;;12.77;;
57551;SDS011;43379;48.160;14.036;2023-08-24T09:02:20;12.10;;;11.20;;
57551;SDS011;43379;48.160;14.036;2023-08-24T09:04:48;15.57;;;14.37;;
57551;SDS011;43379;48.160;14.036;2023-08-24T09:07:16;15.00;;;13.90;;
57551;SDS011;43379;48.160;14.036;2023-08-24T09:09:42;13.23;;;12.23;;
57551;SDS011;43379;48.160;14.036;2023-08-24T09:12:08;12.80;;;11.80;;
57551;SDS011;43379;48.160;14.036;2023-08-24T09:14:34;12.87;;;11.80;;
57551;SDS011;43379;48.160;14.036;2023-08-24T09:17:00;12.30;;;11.20;;
57551;SDS011;43379;48.160;14.036;2023-08-24T09:19:29;12.77;;;11.70;;
57551;SDS011;43379;48.160;14.036;2023-08-24T09:21:56;12.43;;;11.33;;
57551;SDS011;43379;48.160;14.036;2023-08-24T09:24:33;13.93;;;12.37;;
57551;SDS011;43379;48.160;14.036;2023-08-24T09:27:00;12.20;;;10.90;;
57551;SDS011;43379;48.160;14.036;2023-08-24T09:29:40;13.87;;;12.37;;
57551;SDS011;43379;48.160;14.036;2023-08-24T09:32:09;10.70;;;9.70;;
57551;SDS011;43379;48.160;14.036;2023-08-24T09:34:36;9.40;;;8.50;;
57551;SDS011;43379;48.160;14.036;2023-08-24T09:37:02;10.77;;;10.07;;
57551;SDS011;43379;48.160;14.036;2023-08-24T09:39:30;10.73;;;9.83;;
57551;SDS011;43379;48.160;14.036;2023-08-24T09:41:59;12.20;;;11.23;;
57551;SDS011;43379;48.160;14.036;2023-08-24T09:44:28;10.80;;;9.70;;
57551;SDS011;43379;48.160;14.036;2023-08-24T09:46:53;12.00;;;11.00;;
57551;SDS011;43379;48.160;14.036;2023-08-24T09:49:19;12.67;;;11.33;;
57551;SDS011;43379;48.160;14.036;2023-08-24T09:51:46;9.47;;;8.70;;
57551;SDS011;43379;48.160;14.036;2023-08-24T09:54:15;8.43;;;7.83;;
57551;SDS011;43379;48.160;14.036;2023-08-24T09:56:42;11.77;;;8.47;;
57551;SDS011;43379;48.160;14.036;2023-08-24T09:59:11;9.20;;;8.30;;
57551;SDS011;43379;48.160;14.036;2023-08-24T10:01:41;9.10;;;8.23;;
57551;SDS011;43379;48.160;14.036;2023-08-24T10:04:08;10.33;;;9.53;;
57551;SDS011;43379;48.160;14.036;2023-08-24T10:06:34;11.33;;;10.43;;
57551;SDS011;43379;48.160;14.036;2023-08-24T10:09:02;10.33;;;9.40;;
57551;SDS011;43379;48.160;14.036;2023-08-24T10:11:32;9.53;;;8.10;;
57551;SDS011;43379;48.160;14.036;2023-08-24T10:16:40;9.10;;;8.40;;
57551;SDS011;43379;48.160;14.036;2023-08-24T10:19:08;9.87;;;8.97;;
57551;SDS011;43379;48.160;14.036;2023-08-24T10:21:34;10.03;;;8.80;;
57551;SDS011;43379;48.160;14.036;2023-08-24T10:24:02;8.30;;;7.70;;
57551;SDS011;43379;48.160;14.036;2023-08-24T10:26:28;10.20;;;9.33;;
57551;SDS011;43379;48.160;14.036;2023-08-24T10:28:54;9.20;;;8.37;;
57551;SDS011;43379;48.160;14.036;2023-08-24T10:31:22;9.40;;;8.60;;
57551;SDS011;43379;48.160;14.036;2023-08-24T10:33:48;9.30;;;8.70;;
57551;SDS011;43379;48.160;14.036;2023-08-24T10:36:15;8.50;;;7.90;;
57551;SDS011;43379;48.160;14.036;2023-08-24T10:38:42;8.93;;;8.13;;
57551;SDS011;43379;48.160;14.036;2023-08-24T10:41:08;9.50;;;8.60;;
57551;SDS011;43379;48.160;14.036;2023-08-24T10:43:37;10.70;;;9.80;;
57551;SDS011;43379;48.160;14.036;2023-08-24T10:46:04;9.80;;;8.70;;
57551;SDS011;43379;48.160;14.036;2023-08-24T10:56:13;9.50;;;7.60;;
57551;SDS011;43379;48.160;14.036;2023-08-24T10:58:40;8.40;;;7.70;;
57551;SDS011;43379;48.160;14.036;2023-08-24T11:01:06;7.90;;;7.27;;
57551;SDS011;43379;48.160;14.036;2023-08-24T11:03:35;8.47;;;7.77;;
57551;SDS011;43379;48.160;14.036;2023-08-24T11:06:00;9.07;;;7.40;;
57551;SDS011;43379;48.160;14.036;2023-08-24T11:08:45;7.10;;;6.60;;
57551;SDS011;43379;48.160;14.036;2023-08-24T11:11:18;8.20;;;7.60;;
57551;SDS011;43379;48.160;14.036;2023-08-24T11:16:59;8.47;;;7.73;;
57551;SDS011;43379;48.160;14.036;2023-08-24T11:19:27;8.33;;;7.63;;
57551;SDS011;43379;48.160;14.036;2023-08-24T11:21:53;7.60;;;7.00;;
57551;SDS011;43379;48.160;14.036;2023-08-24T11:24:19;6.80;;;6.10;;
57551;SDS011;43379;48.160;14.036;2023-08-24T11:26:48;7.53;;;6.87;;
57551;SDS011;43379;48.160;14.036;2023-08-24T11:29:14;13.10;;;6.33;;
57551;SDS011;43379;48.160;14.036;2023-08-24T11:31:41;7.03;;;6.33;;
57551;SDS011;43379;48.160;14.036;2023-08-24T11:34:07;6.17;;;5.77;;
57551;SDS011;43379;48.160;14.036;2023-08-24T11:36:48;7.30;;;6.70;;
57551;SDS011;43379;48.160;14.036;2023-08-24T11:39:15;10.30;;;6.60;;
57551;SDS011;43379;48.160;14.036;2023-08-24T11:41:43;8.37;;;6.57;;
57551;SDS011;43379;48.160;14.036;2023-08-24T11:44:09;6.70;;;6.10;;
57551;SDS011;43379;48.160;14.036;2023-08-24T11:46:35;6.17;;;5.77;;
57551;SDS011;43379;48.160;14.036;2023-08-24T11:49:06;6.47;;;5.90;;
57551;SDS011;43379;48.160;14.036;2023-08-24T11:51:32;6.63;;;6.03;;
57551;SDS011;43379;48.160;14.036;2023-08-24T11:53:59;7.60;;;7.00;;
57551;SDS011;43379;48.160;14.036;2023-08-24T11:56:25;6.03;;;5.53;;
57551;SDS011;43379;48.160;14.036;2023-08-24T11:58:53;7.37;;;6.83;;
57551;SDS011;43379;48.160;14.036;2023-08-24T12:01:18;10.77;;;6.63;;
57551;SDS011;43379;48.160;14.036;2023-08-24T12:03:44;6.80;;;6.30;;
57551;SDS011;43379;48.160;14.036;2023-08-24T12:06:13;7.43;;;6.73;;
57551;SDS011;43379;48.160;14.036;2023-08-24T12:08:41;6.27;;;5.70;;
57551;SDS011;43379;48.160;14.036;2023-08-24T12:11:15;7.10;;;6.60;;
57551;SDS011;43379;48.160;14.036;2023-08-24T12:13:48;11.70;;;6.60;;
57551;SDS011;43379;48.160;14.036;2023-08-24T12:16:21;6.93;;;6.10;;
57551;SDS011;43379;48.160;14.036;2023-08-24T12:18:57;5.67;;;5.27;;
57551;SDS011;43379;48.160;14.036;2023-08-24T12:21:25;8.17;;;6.80;;
57551;SDS011;43379;48.160;14.036;2023-08-24T12:24:04;7.23;;;6.70;;
57551;SDS011;43379;48.160;14.036;2023-08-24T12:26:31;7.10;;;6.60;;
57551;SDS011;43379;48.160;14.036;2023-08-24T12:29:09;7.67;;;6.60;;
57551;SDS011;43379;48.160;14.036;2023-08-24T12:31:35;7.50;;;6.90;;
57551;SDS011;43379;48.160;14.036;2023-08-24T12:34:04;6.23;;;5.73;;
57551;SDS011;43379;48.160;14.036;2023-08-24T12:36:34;7.20;;;6.67;;
57551;SDS011;43379;48.160;14.036;2023-08-24T12:39:01;6.53;;;5.93;;
57551;SDS011;43379;48.160;14.036;2023-08-24T12:41:29;6.80;;;6.20;;
57551;SDS011;43379;48.160;14.036;2023-08-24T12:43:55;9.73;;;7.10;;
57551;SDS011;43379;48.160;14.036;2023-08-24T12:46:21;7.50;;;6.27;;
57551;SDS011;43379;48.160;14.036;2023-08-24T12:48:46;9.23;;;6.20;;
57551;SDS011;43379;48.160;14.036;2023-08-24T12:51:12;7.87;;;7.17;;
57551;SDS011;43379;48.160;14.036;2023-08-24T12:53:38;7.83;;;7.17;;
57551;SDS011;43379;48.160;14.036;2023-08-24T12:56:04;7.10;;;6.60;;
57551;SDS011;43379;48.160;14.036;2023-08-24T12:58:29;7.70;;;5.83;;
57551;SDS011;43379;48.160;14.036;2023-08-24T13:00:56;7.50;;;6.90;;
57551;SDS011;43379;48.160;14.036;2023-08-24T13:03:21;7.40;;;6.70;;
57551;SDS011;43379;48.160;14.036;2023-08-24T13:05:47;7.50;;;6.80;;
57551;SDS011;43379;48.160;14.036;2023-08-24T13:08:13;6.83;;;6.23;;
57551;SDS011;43379;48.160;14.036;2023-08-24T13:10:38;8.17;;;7.37;;
57551;SDS011;43379;48.160;14.036;2023-08-24T13:13:04;7.10;;;6.50;;
57551;SDS011;43379;48.160;14.036;2023-08-24T13:15:30;7.00;;;6.40;;
57551;SDS011;43379;48.160;14.036;2023-08-24T13:17:55;7.47;;;6.80;;
57551;SDS011;43379;48.160;14.036;2023-08-24T13:20:22;7.80;;;7.07;;
57551;SDS011;43379;48.160;14.036;2023-08-24T13:22:48;6.33;;;5.77;;
57551;SDS011;43379;48.160;14.036;2023-08-24T13:25:14;6.30;;;5.77;;
57551;SDS011;43379;48.160;14.036;2023-08-24T13:27:39;6.53;;;6.03;;
57551;SDS011;43379;48.160;14.036;2023-08-24T13:30:05;6.97;;;6.30;;
57551;SDS011;43379;48.160;14.036;2023-08-24T13:32:31;7.00;;;6.40;;
57551;SDS011;43379;48.160;14.036;2023-08-24T13:34:57;7.00;;;6.40;;
57551;SDS011;43379;48.160;14.036;2023-08-24T13:37:23;7.30;;;6.20;;
57551;SDS011;43379;48.160;14.036;2023-08-24T13:39:49;10.27;;;6.20;;
57551;SDS011;43379;48.160;14.036;2023-08-24T13:42:16;6.73;;;6.07;;
57551;SDS011;43379;48.160;14.036;2023-08-24T13:44:42;7.67;;;6.37;;
57551;SDS011;43379;48.160;14.036;2023-08-24T13:47:08;6.80;;;6.30;;
57551;SDS011;43379;48.160;14.036;2023-08-24T13:49:33;7.53;;;7.00;;
57551;SDS011;43379;48.160;14.036;2023-08-24T13:51:59;7.93;;;5.93;;
57551;SDS011;43379;48.160;14.036;2023-08-24T13:54:25;7.80;;;6.93;;
57551;SDS011;43379;48.160;14.036;2023-08-24T13:56:51;6.30;;;5.80;;
57551;SDS011;43379;48.160;14.036;2023-08-24T13:59:19;9.63;;;7.37;;
57551;SDS011;43379;48.160;14.036;2023-08-24T14:01:45;7.13;;;6.40;;
57551;SDS011;43379;48.160;14.036;2023-08-24T14:04:10;7.23;;;6.53;;
57551;SDS011;43379;48.160;14.036;2023-08-24T14:06:36;6.67;;;6.13;;
57551;SDS011;43379;48.160;14.036;2023-08-24T14:09:02;7.27;;;6.57;;
57551;SDS011;43379;48.160;14.036;2023-08-24T14:11:29;6.97;;;6.27;;
57551;SDS011;43379;48.160;14.036;2023-08-24T14:13:55;7.60;;;6.83;;
57551;SDS011;43379;48.160;14.036;2023-08-24T14:16:20;6.80;;;6.20;;
57551;SDS011;43379;48.160;14.036;2023-08-24T14:18:46;6.93;;;5.83;;
57551;SDS011;43379;48.160;14.036;2023-08-24T14:21:12;7.37;;;6.67;;
57551;SDS011;43379;48.160;14.036;2023-08-24T14:23:39;6.83;;;6.13;;
57551;SDS011;43379;48.160;14.036;2023-08-24T14:26:05;7.57;;;6.80;;
57551;SDS011;43379;48.160;14.036;2023-08-24T14:31:21;10.10;;;8.73;;
57551;SDS011;43379;48.160;14.036;2023-08-24T14:33:47;9.20;;;7.90;;
57551;SDS011;43379;48.160;14.036;2023-08-24T14:36:13;9.00;;;8.27;;